sensor_id;sensor_type;location;lat;lon;timestamp;P1;durP1;ratioP1;P2;durP2;ratioP2
11827;SDS011;5971;49.646;8.568;2023-07-24T00:00:02;5.20;;;2.55;;
11827;SDS011;5971;49.646;8.568;2023-07-24T00:03:04;4.95;;;2.60;;
11827;SDS011;5971;49.646;8.568;2023-07-24T00:06:05;6.45;;;2.85;;
11827;SDS011;5971;49.646;8.568;2023-07-24T00:09:07;4.90;;;2.63;;
11827;SDS011;5971;49.646;8.568;2023-07-24T00:12:08;6.72;;;2.63;;
11827;SDS011;5971;49.646;8.568;2023-07-24T00:15:09;5.60;;;2.97;;
11827;SDS011;5971;49.646;8.568;2023-07-24T00:18:11;4.57;;;2.58;;
11827;SDS011;5971;49.646;8.568;2023-07-24T00:21:12;4.82;;;2.63;;
11827;SDS011;5971;49.646;8.568;2023-07-24T00:24:14;5.35;;;2.83;;
11827;SDS011;5971;49.646;8.568;2023-07-24T00:27:16;5.95;;;3.00;;
11827;SDS011;5971;49.646;8.568;2023-07-24T00:30:17;7.35;;;3.03;;
11827;SDS011;5971;49.646;8.568;2023-07-24T00:33:18;4.78;;;2.50;;
11827;SDS011;5971;49.646;8.568;2023-07-24T00:36:20;5.07;;;2.70;;
11827;SDS011;5971;49.646;8.568;2023-07-24T00:39:21;5.75;;;2.90;;
11827;SDS011;5971;49.646;8.568;2023-07-24T00:42:22;5.55;;;2.45;;
11827;SDS011;5971;49.646;8.568;2023-07-24T00:45:24;5.95;;;2.63;;
11827;SDS011;5971;49.646;8.568;2023-07-24T00:48:25;5.43;;;3.30;;
11827;SDS011;5971;49.646;8.568;2023-07-24T00:51:27;6.65;;;2.70;;
11827;SDS011;5971;49.646;8.568;2023-07-24T00:54:31;5.15;;;2.60;;
11827;SDS011;5971;49.646;8.568;2023-07-24T00:57:33;6.25;;;2.85;;
11827;SDS011;5971;49.646;8.568;2023-07-24T01:00:35;5.15;;;2.75;;
11827;SDS011;5971;49.646;8.568;2023-07-24T01:03:36;5.10;;;2.40;;
11827;SDS011;5971;49.646;8.568;2023-07-24T01:06:39;9.45;;;3.10;;
11827;SDS011;5971;49.646;8.568;2023-07-24T01:09:40;5.78;;;3.22;;
11827;SDS011;5971;49.646;8.568;2023-07-24T01:12:54;6.22;;;3.40;;
11827;SDS011;5971;49.646;8.568;2023-07-24T01:15:56;5.90;;;3.13;;
11827;SDS011;5971;49.646;8.568;2023-07-24T01:19:00;6.28;;;3.83;;
11827;SDS011;5971;49.646;8.568;2023-07-24T01:28:08;6.70;;;3.20;;
11827;SDS011;5971;49.646;8.568;2023-07-24T01:31:09;6.07;;;2.67;;
11827;SDS011;5971;49.646;8.568;2023-07-24T01:34:11;5.88;;;3.00;;
11827;SDS011;5971;49.646;8.568;2023-07-24T01:37:12;6.45;;;2.85;;
11827;SDS011;5971;49.646;8.568;2023-07-24T01:40:13;6.30;;;2.97;;
11827;SDS011;5971;49.646;8.568;2023-07-24T01:43:16;6.32;;;2.90;;
11827;SDS011;5971;49.646;8.568;2023-07-24T01:46:17;8.20;;;3.25;;
11827;SDS011;5971;49.646;8.568;2023-07-24T01:49:19;6.70;;;3.13;;
11827;SDS011;5971;49.646;8.568;2023-07-24T01:52:20;6.13;;;3.03;;
11827;SDS011;5971;49.646;8.568;2023-07-24T01:55:21;6.28;;;3.05;;
11827;SDS011;5971;49.646;8.568;2023-07-24T01:58:23;7.78;;;3.42;;
11827;SDS011;5971;49.646;8.568;2023-07-24T02:01:24;6.85;;;3.22;;
11827;SDS011;5971;49.646;8.568;2023-07-24T02:04:25;6.35;;;3.00;;
11827;SDS011;5971;49.646;8.568;2023-07-24T02:07:27;6.47;;;3.20;;
11827;SDS011;5971;49.646;8.568;2023-07-24T02:10:28;5.43;;;3.03;;
11827;SDS011;5971;49.646;8.568;2023-07-24T02:13:30;6.40;;;3.63;;
11827;SDS011;5971;49.646;8.568;2023-07-24T02:16:31;6.50;;;3.03;;
11827;SDS011;5971;49.646;8.568;2023-07-24T02:19:33;6.85;;;3.17;;
11827;SDS011;5971;49.646;8.568;2023-07-24T02:22:34;6.38;;;3.00;;
11827;SDS011;5971;49.646;8.568;2023-07-24T02:25:36;6.43;;;3.05;;
11827;SDS011;5971;49.646;8.568;2023-07-24T02:28:38;5.80;;;3.13;;
11827;SDS011;5971;49.646;8.568;2023-07-24T02:31:39;6.38;;;3.03;;
11827;SDS011;5971;49.646;8.568;2023-07-24T02:34:40;6.93;;;3.17;;
11827;SDS011;5971;49.646;8.568;2023-07-24T02:37:42;7.57;;;3.45;;
11827;SDS011;5971;49.646;8.568;2023-07-24T02:40:43;6.40;;;3.03;;
11827;SDS011;5971;49.646;8.568;2023-07-24T02:43:44;7.03;;;3.60;;
11827;SDS011;5971;49.646;8.568;2023-07-24T02:46:46;6.72;;;3.45;;
11827;SDS011;5971;49.646;8.568;2023-07-24T02:49:47;9.90;;;3.40;;
11827;SDS011;5971;49.646;8.568;2023-07-24T02:52:48;7.57;;;3.50;;
11827;SDS011;5971;49.646;8.568;2023-07-24T02:55:50;7.97;;;3.40;;
11827;SDS011;5971;49.646;8.568;2023-07-24T02:58:51;7.63;;;3.38;;
11827;SDS011;5971;49.646;8.568;2023-07-24T03:01:52;8.77;;;3.67;;
11827;SDS011;5971;49.646;8.568;2023-07-24T03:04:54;7.38;;;3.42;;
11827;SDS011;5971;49.646;8.568;2023-07-24T03:07:55;6.40;;;3.53;;
11827;SDS011;5971;49.646;8.568;2023-07-24T03:10:57;8.15;;;3.35;;
11827;SDS011;5971;49.646;8.568;2023-07-24T03:13:58;6.63;;;3.33;;
11827;SDS011;5971;49.646;8.568;2023-07-24T03:16:59;7.82;;;3.28;;
11827;SDS011;5971;49.646;8.568;2023-07-24T03:23:05;7.07;;;3.38;;
11827;SDS011;5971;49.646;8.568;2023-07-24T03:26:07;6.47;;;3.05;;
11827;SDS011;5971;49.646;8.568;2023-07-24T03:29:08;7.38;;;3.42;;
11827;SDS011;5971;49.646;8.568;2023-07-24T03:32:09;8.85;;;3.35;;
11827;SDS011;5971;49.646;8.568;2023-07-24T03:35:11;7.25;;;3.58;;
11827;SDS011;5971;49.646;8.568;2023-07-24T03:38:12;6.95;;;3.85;;
11827;SDS011;5971;49.646;8.568;2023-07-24T03:41:13;8.15;;;3.65;;
11827;SDS011;5971;49.646;8.568;2023-07-24T03:44:15;6.57;;;3.15;;
11827;SDS011;5971;49.646;8.568;2023-07-24T03:47:16;7.13;;;3.65;;
11827;SDS011;5971;49.646;8.568;2023-07-24T03:50:17;9.57;;;4.43;;
11827;SDS011;5971;49.646;8.568;2023-07-24T03:53:18;7.30;;;4.05;;
11827;SDS011;5971;49.646;8.568;2023-07-24T03:56:20;8.07;;;3.60;;
11827;SDS011;5971;49.646;8.568;2023-07-24T03:59:21;8.07;;;3.53;;
11827;SDS011;5971;49.646;8.568;2023-07-24T04:02:23;9.00;;;3.85;;
11827;SDS011;5971;49.646;8.568;2023-07-24T04:05:24;9.18;;;3.63;;
11827;SDS011;5971;49.646;8.568;2023-07-24T04:08:27;8.60;;;3.83;;
11827;SDS011;5971;49.646;8.568;2023-07-24T04:11:28;6.60;;;3.67;;
11827;SDS011;5971;49.646;8.568;2023-07-24T04:14:30;7.18;;;3.63;;
11827;SDS011;5971;49.646;8.568;2023-07-24T04:17:31;9.18;;;3.88;;
11827;SDS011;5971;49.646;8.568;2023-07-24T04:20:33;6.68;;;3.70;;
11827;SDS011;5971;49.646;8.568;2023-07-24T04:23:35;7.00;;;3.58;;
11827;SDS011;5971;49.646;8.568;2023-07-24T04:26:38;7.25;;;3.75;;
11827;SDS011;5971;49.646;8.568;2023-07-24T04:29:40;8.40;;;4.22;;
11827;SDS011;5971;49.646;8.568;2023-07-24T04:32:42;7.70;;;3.83;;
11827;SDS011;5971;49.646;8.568;2023-07-24T04:35:43;6.80;;;3.72;;
11827;SDS011;5971;49.646;8.568;2023-07-24T04:38:48;7.43;;;3.78;;
11827;SDS011;5971;49.646;8.568;2023-07-24T04:41:49;9.65;;;3.78;;
11827;SDS011;5971;49.646;8.568;2023-07-24T04:44:51;9.23;;;3.95;;
11827;SDS011;5971;49.646;8.568;2023-07-24T04:47:53;8.98;;;4.00;;
11827;SDS011;5971;49.646;8.568;2023-07-24T04:50:54;8.65;;;4.45;;
11827;SDS011;5971;49.646;8.568;2023-07-24T04:53:56;7.88;;;3.72;;
11827;SDS011;5971;49.646;8.568;2023-07-24T04:56:57;7.13;;;3.70;;
11827;SDS011;5971;49.646;8.568;2023-07-24T04:59:59;8.50;;;4.07;;
11827;SDS011;5971;49.646;8.568;2023-07-24T05:03:00;7.72;;;3.70;;
11827;SDS011;5971;49.646;8.568;2023-07-24T05:06:01;6.68;;;3.50;;
11827;SDS011;5971;49.646;8.568;2023-07-24T05:09:03;7.97;;;3.55;;
11827;SDS011;5971;49.646;8.568;2023-07-24T05:12:04;9.32;;;3.67;;
11827;SDS011;5971;49.646;8.568;2023-07-24T05:15:06;6.65;;;3.40;;
11827;SDS011;5971;49.646;8.568;2023-07-24T05:18:07;6.93;;;3.45;;
11827;SDS011;5971;49.646;8.568;2023-07-24T05:21:08;7.10;;;3.65;;
11827;SDS011;5971;49.646;8.568;2023-07-24T05:24:10;6.60;;;3.33;;
11827;SDS011;5971;49.646;8.568;2023-07-24T05:27:11;6.13;;;3.30;;
11827;SDS011;5971;49.646;8.568;2023-07-24T05:30:13;7.72;;;3.72;;
11827;SDS011;5971;49.646;8.568;2023-07-24T05:33:16;7.15;;;3.53;;
11827;SDS011;5971;49.646;8.568;2023-07-24T05:36:17;7.88;;;3.85;;
11827;SDS011;5971;49.646;8.568;2023-07-24T05:39:19;7.50;;;3.80;;
11827;SDS011;5971;49.646;8.568;2023-07-24T05:42:20;9.27;;;4.40;;
11827;SDS011;5971;49.646;8.568;2023-07-24T05:45:21;7.70;;;3.70;;
11827;SDS011;5971;49.646;8.568;2023-07-24T05:48:23;7.95;;;3.97;;
11827;SDS011;5971;49.646;8.568;2023-07-24T05:51:24;6.78;;;3.45;;
11827;SDS011;5971;49.646;8.568;2023-07-24T05:54:26;7.40;;;3.67;;
11827;SDS011;5971;49.646;8.568;2023-07-24T05:57:27;7.60;;;3.50;;
11827;SDS011;5971;49.646;8.568;2023-07-24T06:00:28;7.32;;;3.65;;
11827;SDS011;5971;49.646;8.568;2023-07-24T06:03:30;8.55;;;3.75;;
11827;SDS011;5971;49.646;8.568;2023-07-24T06:06:31;8.23;;;3.70;;
11827;SDS011;5971;49.646;8.568;2023-07-24T06:09:34;7.50;;;4.00;;
11827;SDS011;5971;49.646;8.568;2023-07-24T06:12:35;7.63;;;4.50;;
11827;SDS011;5971;49.646;8.568;2023-07-24T06:15:37;9.35;;;4.22;;
11827;SDS011;5971;49.646;8.568;2023-07-24T06:18:38;9.05;;;3.75;;
11827;SDS011;5971;49.646;8.568;2023-07-24T06:21:39;7.25;;;4.03;;
11827;SDS011;5971;49.646;8.568;2023-07-24T06:24:42;7.78;;;4.22;;
11827;SDS011;5971;49.646;8.568;2023-07-24T06:27:44;7.47;;;3.90;;
11827;SDS011;5971;49.646;8.568;2023-07-24T06:30:45;8.48;;;4.20;;
11827;SDS011;5971;49.646;8.568;2023-07-24T06:33:46;8.82;;;4.10;;
11827;SDS011;5971;49.646;8.568;2023-07-24T06:36:48;7.93;;;4.38;;
11827;SDS011;5971;49.646;8.568;2023-07-24T06:39:49;9.05;;;4.03;;
11827;SDS011;5971;49.646;8.568;2023-07-24T06:42:50;8.48;;;4.32;;
11827;SDS011;5971;49.646;8.568;2023-07-24T06:45:51;8.40;;;4.00;;
11827;SDS011;5971;49.646;8.568;2023-07-24T06:48:53;7.80;;;4.30;;
11827;SDS011;5971;49.646;8.568;2023-07-24T06:51:54;7.93;;;4.00;;
11827;SDS011;5971;49.646;8.568;2023-07-24T06:54:56;7.10;;;3.75;;
11827;SDS011;5971;49.646;8.568;2023-07-24T06:57:59;7.22;;;4.28;;
11827;SDS011;5971;49.646;8.568;2023-07-24T07:01:04;8.55;;;3.70;;
11827;SDS011;5971;49.646;8.568;2023-07-24T07:04:06;9.27;;;4.45;;
11827;SDS011;5971;49.646;8.568;2023-07-24T07:07:07;8.88;;;3.60;;
11827;SDS011;5971;49.646;8.568;2023-07-24T07:10:09;7.40;;;3.67;;
11827;SDS011;5971;49.646;8.568;2023-07-24T07:13:10;8.82;;;4.55;;
11827;SDS011;5971;49.646;8.568;2023-07-24T07:16:11;7.05;;;3.70;;
11827;SDS011;5971;49.646;8.568;2023-07-24T07:19:13;7.30;;;4.30;;
11827;SDS011;5971;49.646;8.568;2023-07-24T07:22:14;7.03;;;3.90;;
11827;SDS011;5971;49.646;8.568;2023-07-24T07:25:15;8.18;;;4.00;;
11827;SDS011;5971;49.646;8.568;2023-07-24T07:28:17;8.90;;;4.25;;
11827;SDS011;5971;49.646;8.568;2023-07-24T07:31:20;7.82;;;3.92;;
11827;SDS011;5971;49.646;8.568;2023-07-24T07:34:21;10.27;;;4.55;;
11827;SDS011;5971;49.646;8.568;2023-07-24T07:37:22;7.97;;;4.05;;
11827;SDS011;5971;49.646;8.568;2023-07-24T07:40:24;6.70;;;3.95;;
11827;SDS011;5971;49.646;8.568;2023-07-24T07:43:27;6.50;;;3.80;;
11827;SDS011;5971;49.646;8.568;2023-07-24T07:46:29;7.68;;;4.10;;
11827;SDS011;5971;49.646;8.568;2023-07-24T07:49:31;7.88;;;3.85;;
11827;SDS011;5971;49.646;8.568;2023-07-24T07:52:33;6.97;;;3.90;;
11827;SDS011;5971;49.646;8.568;2023-07-24T07:55:34;8.18;;;4.03;;
11827;SDS011;5971;49.646;8.568;2023-07-24T07:58:35;7.57;;;3.88;;
11827;SDS011;5971;49.646;8.568;2023-07-24T08:01:37;6.85;;;4.10;;
11827;SDS011;5971;49.646;8.568;2023-07-24T08:04:40;8.15;;;4.50;;
11827;SDS011;5971;49.646;8.568;2023-07-24T08:07:41;6.38;;;3.85;;
11827;SDS011;5971;49.646;8.568;2023-07-24T08:10:43;7.22;;;4.30;;
11827;SDS011;5971;49.646;8.568;2023-07-24T08:13:45;9.18;;;4.07;;
11827;SDS011;5971;49.646;8.568;2023-07-24T08:16:49;8.77;;;4.20;;
11827;SDS011;5971;49.646;8.568;2023-07-24T08:19:51;7.97;;;4.15;;
11827;SDS011;5971;49.646;8.568;2023-07-24T08:22:52;7.68;;;4.30;;
11827;SDS011;5971;49.646;8.568;2023-07-24T08:25:54;8.07;;;4.05;;
11827;SDS011;5971;49.646;8.568;2023-07-24T08:28:55;6.93;;;3.85;;
11827;SDS011;5971;49.646;8.568;2023-07-24T08:31:57;7.63;;;3.92;;
11827;SDS011;5971;49.646;8.568;2023-07-24T08:34:59;8.13;;;3.90;;
11827;SDS011;5971;49.646;8.568;2023-07-24T08:38:00;10.57;;;4.50;;
11827;SDS011;5971;49.646;8.568;2023-07-24T08:41:02;6.75;;;3.78;;
11827;SDS011;5971;49.646;8.568;2023-07-24T08:44:05;9.23;;;4.10;;
11827;SDS011;5971;49.646;8.568;2023-07-24T08:47:09;8.13;;;4.13;;
11827;SDS011;5971;49.646;8.568;2023-07-24T08:50:11;7.70;;;3.90;;
11827;SDS011;5971;49.646;8.568;2023-07-24T08:53:13;8.45;;;4.18;;
11827;SDS011;5971;49.646;8.568;2023-07-24T08:56:15;8.07;;;4.13;;
11827;SDS011;5971;49.646;8.568;2023-07-24T08:59:17;6.68;;;3.80;;
11827;SDS011;5971;49.646;8.568;2023-07-24T09:02:19;6.80;;;3.63;;
11827;SDS011;5971;49.646;8.568;2023-07-24T09:05:20;6.60;;;3.92;;
11827;SDS011;5971;49.646;8.568;2023-07-24T09:08:28;6.95;;;4.25;;
11827;SDS011;5971;49.646;8.568;2023-07-24T09:11:31;8.43;;;3.78;;
11827;SDS011;5971;49.646;8.568;2023-07-24T09:14:32;7.05;;;4.50;;
11827;SDS011;5971;49.646;8.568;2023-07-24T09:17:33;6.80;;;4.03;;
11827;SDS011;5971;49.646;8.568;2023-07-24T09:20:42;5.22;;;3.47;;
11827;SDS011;5971;49.646;8.568;2023-07-24T09:23:44;8.00;;;4.18;;
11827;SDS011;5971;49.646;8.568;2023-07-24T09:26:47;8.00;;;4.03;;
11827;SDS011;5971;49.646;8.568;2023-07-24T09:29:48;7.32;;;3.80;;
11827;SDS011;5971;49.646;8.568;2023-07-24T09:32:53;6.13;;;3.83;;
11827;SDS011;5971;49.646;8.568;2023-07-24T09:36:01;7.30;;;3.85;;
11827;SDS011;5971;49.646;8.568;2023-07-24T09:39:02;6.55;;;3.80;;
11827;SDS011;5971;49.646;8.568;2023-07-24T09:42:10;8.23;;;4.15;;
11827;SDS011;5971;49.646;8.568;2023-07-24T09:45:12;9.48;;;3.97;;
11827;SDS011;5971;49.646;8.568;2023-07-24T09:48:14;6.63;;;3.80;;
11827;SDS011;5971;49.646;8.568;2023-07-24T09:51:36;8.82;;;4.38;;
11827;SDS011;5971;49.646;8.568;2023-07-24T09:54:42;7.20;;;4.00;;
11827;SDS011;5971;49.646;8.568;2023-07-24T09:57:46;7.50;;;4.20;;
11827;SDS011;5971;49.646;8.568;2023-07-24T10:00:48;9.25;;;4.20;;
11827;SDS011;5971;49.646;8.568;2023-07-24T10:03:50;6.60;;;4.20;;
11827;SDS011;5971;49.646;8.568;2023-07-24T10:06:51;10.02;;;4.35;;
11827;SDS011;5971;49.646;8.568;2023-07-24T10:09:53;7.55;;;4.35;;
11827;SDS011;5971;49.646;8.568;2023-07-24T10:12:54;7.68;;;4.25;;
11827;SDS011;5971;49.646;8.568;2023-07-24T10:15:56;6.70;;;4.03;;
11827;SDS011;5971;49.646;8.568;2023-07-24T10:18:57;9.95;;;4.47;;
11827;SDS011;5971;49.646;8.568;2023-07-24T10:21:59;7.93;;;4.60;;
11827;SDS011;5971;49.646;8.568;2023-07-24T10:25:00;8.32;;;3.80;;
11827;SDS011;5971;49.646;8.568;2023-07-24T10:28:02;7.43;;;4.03;;
11827;SDS011;5971;49.646;8.568;2023-07-24T10:31:21;6.88;;;4.05;;
11827;SDS011;5971;49.646;8.568;2023-07-24T10:34:23;7.07;;;3.70;;
11827;SDS011;5971;49.646;8.568;2023-07-24T10:37:34;7.85;;;4.30;;
11827;SDS011;5971;49.646;8.568;2023-07-24T10:40:36;7.90;;;4.05;;
11827;SDS011;5971;49.646;8.568;2023-07-24T10:43:41;6.57;;;4.03;;
11827;SDS011;5971;49.646;8.568;2023-07-24T10:46:46;7.93;;;4.45;;
11827;SDS011;5971;49.646;8.568;2023-07-24T10:49:48;6.95;;;3.58;;
11827;SDS011;5971;49.646;8.568;2023-07-24T10:52:50;6.95;;;4.10;;
11827;SDS011;5971;49.646;8.568;2023-07-24T10:55:51;6.00;;;3.75;;
11827;SDS011;5971;49.646;8.568;2023-07-24T10:58:53;7.40;;;4.22;;
11827;SDS011;5971;49.646;8.568;2023-07-24T11:01:55;6.45;;;3.88;;
11827;SDS011;5971;49.646;8.568;2023-07-24T11:04:58;7.15;;;3.70;;
11827;SDS011;5971;49.646;8.568;2023-07-24T11:08:00;6.32;;;3.67;;
11827;SDS011;5971;49.646;8.568;2023-07-24T11:11:01;9.32;;;3.95;;
11827;SDS011;5971;49.646;8.568;2023-07-24T11:14:04;7.65;;;3.80;;
11827;SDS011;5971;49.646;8.568;2023-07-24T11:17:05;7.13;;;3.70;;
11827;SDS011;5971;49.646;8.568;2023-07-24T11:23:11;9.05;;;4.00;;
11827;SDS011;5971;49.646;8.568;2023-07-24T11:26:12;6.88;;;4.03;;
11827;SDS011;5971;49.646;8.568;2023-07-24T11:29:14;6.53;;;3.72;;
11827;SDS011;5971;49.646;8.568;2023-07-24T11:32:19;6.90;;;3.53;;
11827;SDS011;5971;49.646;8.568;2023-07-24T11:35:22;6.90;;;3.85;;
11827;SDS011;5971;49.646;8.568;2023-07-24T11:38:28;8.82;;;3.92;;
11827;SDS011;5971;49.646;8.568;2023-07-24T11:41:32;6.50;;;3.63;;
11827;SDS011;5971;49.646;8.568;2023-07-24T11:44:34;6.95;;;3.85;;
11827;SDS011;5971;49.646;8.568;2023-07-24T11:50:53;6.47;;;3.78;;
11827;SDS011;5971;49.646;8.568;2023-07-24T11:54:05;6.82;;;3.83;;
11827;SDS011;5971;49.646;8.568;2023-07-24T11:57:15;6.88;;;4.82;;
11827;SDS011;5971;49.646;8.568;2023-07-24T12:00:20;7.15;;;4.00;;
11827;SDS011;5971;49.646;8.568;2023-07-24T12:06:23;8.80;;;4.13;;
11827;SDS011;5971;49.646;8.568;2023-07-24T12:09:29;6.25;;;3.55;;
11827;SDS011;5971;49.646;8.568;2023-07-24T12:12:40;5.95;;;3.63;;
11827;SDS011;5971;49.646;8.568;2023-07-24T12:15:43;7.30;;;3.70;;
11827;SDS011;5971;49.646;8.568;2023-07-24T12:18:44;6.57;;;3.70;;
11827;SDS011;5971;49.646;8.568;2023-07-24T12:21:46;6.70;;;4.00;;
11827;SDS011;5971;49.646;8.568;2023-07-24T12:24:47;7.35;;;4.18;;
11827;SDS011;5971;49.646;8.568;2023-07-24T12:27:49;5.57;;;3.53;;
11827;SDS011;5971;49.646;8.568;2023-07-24T12:30:50;6.45;;;3.70;;
11827;SDS011;5971;49.646;8.568;2023-07-24T12:33:52;7.38;;;4.03;;
11827;SDS011;5971;49.646;8.568;2023-07-24T12:36:53;5.93;;;3.67;;
11827;SDS011;5971;49.646;8.568;2023-07-24T12:39:55;7.32;;;4.15;;
11827;SDS011;5971;49.646;8.568;2023-07-24T12:42:56;7.32;;;3.95;;
11827;SDS011;5971;49.646;8.568;2023-07-24T12:45:58;6.50;;;3.70;;
11827;SDS011;5971;49.646;8.568;2023-07-24T12:48:59;5.95;;;3.55;;
11827;SDS011;5971;49.646;8.568;2023-07-24T12:52:01;6.28;;;3.63;;
11827;SDS011;5971;49.646;8.568;2023-07-24T12:55:03;6.40;;;3.58;;
11827;SDS011;5971;49.646;8.568;2023-07-24T12:58:04;6.53;;;4.00;;
11827;SDS011;5971;49.646;8.568;2023-07-24T13:01:05;6.47;;;3.85;;
11827;SDS011;5971;49.646;8.568;2023-07-24T13:04:08;6.57;;;4.20;;
11827;SDS011;5971;49.646;8.568;2023-07-24T13:07:09;7.82;;;4.22;;
11827;SDS011;5971;49.646;8.568;2023-07-24T13:10:11;6.70;;;4.18;;
11827;SDS011;5971;49.646;8.568;2023-07-24T13:13:12;8.38;;;3.92;;
11827;SDS011;5971;49.646;8.568;2023-07-24T13:16:14;6.18;;;3.83;;
11827;SDS011;5971;49.646;8.568;2023-07-24T13:19:15;6.60;;;3.95;;
11827;SDS011;5971;49.646;8.568;2023-07-24T13:22:20;8.82;;;4.70;;
11827;SDS011;5971;49.646;8.568;2023-07-24T13:25:22;6.80;;;4.45;;
11827;SDS011;5971;49.646;8.568;2023-07-24T13:28:23;6.18;;;3.95;;
11827;SDS011;5971;49.646;8.568;2023-07-24T13:31:24;7.70;;;4.50;;
11827;SDS011;5971;49.646;8.568;2023-07-24T13:34:26;7.50;;;3.85;;
11827;SDS011;5971;49.646;8.568;2023-07-24T13:37:27;6.57;;;4.10;;
11827;SDS011;5971;49.646;8.568;2023-07-24T13:40:29;6.45;;;3.97;;
11827;SDS011;5971;49.646;8.568;2023-07-24T13:43:31;7.07;;;4.22;;
11827;SDS011;5971;49.646;8.568;2023-07-24T13:46:32;6.20;;;4.03;;
11827;SDS011;5971;49.646;8.568;2023-07-24T13:49:34;7.88;;;3.92;;
11827;SDS011;5971;49.646;8.568;2023-07-24T13:52:35;6.68;;;3.75;;
11827;SDS011;5971;49.646;8.568;2023-07-24T13:55:36;6.57;;;3.85;;
11827;SDS011;5971;49.646;8.568;2023-07-24T13:58:38;7.70;;;4.13;;
11827;SDS011;5971;49.646;8.568;2023-07-24T14:01:39;6.20;;;3.95;;
11827;SDS011;5971;49.646;8.568;2023-07-24T14:04:41;8.60;;;4.07;;
11827;SDS011;5971;49.646;8.568;2023-07-24T14:07:42;5.75;;;3.58;;
11827;SDS011;5971;49.646;8.568;2023-07-24T14:10:43;6.45;;;3.30;;
11827;SDS011;5971;49.646;8.568;2023-07-24T14:13:45;6.20;;;3.83;;
11827;SDS011;5971;49.646;8.568;2023-07-24T14:16:47;7.15;;;3.85;;
11827;SDS011;5971;49.646;8.568;2023-07-24T14:19:49;13.07;;;3.75;;
11827;SDS011;5971;49.646;8.568;2023-07-24T14:22:50;6.95;;;3.70;;
11827;SDS011;5971;49.646;8.568;2023-07-24T14:25:51;5.57;;;3.13;;
11827;SDS011;5971;49.646;8.568;2023-07-24T14:28:53;5.32;;;3.10;;
11827;SDS011;5971;49.646;8.568;2023-07-24T14:31:57;5.65;;;3.28;;
11827;SDS011;5971;49.646;8.568;2023-07-24T14:34:59;6.63;;;4.10;;
11827;SDS011;5971;49.646;8.568;2023-07-24T14:38:00;6.93;;;3.85;;
11827;SDS011;5971;49.646;8.568;2023-07-24T14:41:01;9.20;;;3.92;;
11827;SDS011;5971;49.646;8.568;2023-07-24T14:44:03;7.03;;;3.45;;
11827;SDS011;5971;49.646;8.568;2023-07-24T14:47:04;9.07;;;3.72;;
11827;SDS011;5971;49.646;8.568;2023-07-24T14:50:06;5.43;;;3.00;;
11827;SDS011;5971;49.646;8.568;2023-07-24T14:53:07;6.53;;;3.72;;
11827;SDS011;5971;49.646;8.568;2023-07-24T14:56:09;6.90;;;3.42;;
11827;SDS011;5971;49.646;8.568;2023-07-24T14:59:10;7.25;;;4.38;;
11827;SDS011;5971;49.646;8.568;2023-07-24T15:02:12;7.05;;;4.15;;
11827;SDS011;5971;49.646;8.568;2023-07-24T15:05:13;8.80;;;4.20;;
11827;SDS011;5971;49.646;8.568;2023-07-24T15:08:14;9.73;;;4.43;;
11827;SDS011;5971;49.646;8.568;2023-07-24T15:11:16;8.95;;;4.68;;
11827;SDS011;5971;49.646;8.568;2023-07-24T15:14:17;10.48;;;4.38;;
11827;SDS011;5971;49.646;8.568;2023-07-24T15:17:18;7.75;;;4.30;;
11827;SDS011;5971;49.646;8.568;2023-07-24T15:20:20;8.23;;;4.78;;
11827;SDS011;5971;49.646;8.568;2023-07-24T15:23:22;9.00;;;4.28;;
11827;SDS011;5971;49.646;8.568;2023-07-24T15:26:23;8.35;;;4.47;;
11827;SDS011;5971;49.646;8.568;2023-07-24T15:29:25;7.35;;;4.03;;
11827;SDS011;5971;49.646;8.568;2023-07-24T15:32:26;8.05;;;4.95;;
11827;SDS011;5971;49.646;8.568;2023-07-24T15:35:28;7.28;;;4.25;;
11827;SDS011;5971;49.646;8.568;2023-07-24T15:38:29;8.00;;;3.85;;
11827;SDS011;5971;49.646;8.568;2023-07-24T15:41:30;7.00;;;3.70;;
11827;SDS011;5971;49.646;8.568;2023-07-24T15:44:33;6.78;;;3.85;;
11827;SDS011;5971;49.646;8.568;2023-07-24T15:47:34;6.80;;;3.78;;
11827;SDS011;5971;49.646;8.568;2023-07-24T15:50:36;8.95;;;4.03;;
11827;SDS011;5971;49.646;8.568;2023-07-24T15:53:37;7.22;;;3.80;;
11827;SDS011;5971;49.646;8.568;2023-07-24T15:56:39;7.40;;;3.83;;
11827;SDS011;5971;49.646;8.568;2023-07-24T15:59:40;5.65;;;2.28;;
11827;SDS011;5971;49.646;8.568;2023-07-24T16:02:42;3.25;;;1.80;;
11827;SDS011;5971;49.646;8.568;2023-07-24T16:05:43;5.28;;;2.15;;
11827;SDS011;5971;49.646;8.568;2023-07-24T16:08:45;5.20;;;2.05;;
11827;SDS011;5971;49.646;8.568;2023-07-24T16:11:46;3.53;;;1.80;;
11827;SDS011;5971;49.646;8.568;2023-07-24T16:14:48;4.43;;;2.20;;
11827;SDS011;5971;49.646;8.568;2023-07-24T16:17:49;4.50;;;2.38;;
11827;SDS011;5971;49.646;8.568;2023-07-24T16:20:54;4.35;;;1.67;;
11827;SDS011;5971;49.646;8.568;2023-07-24T16:23:55;5.13;;;1.73;;
11827;SDS011;5971;49.646;8.568;2023-07-24T16:26:57;3.58;;;1.63;;
11827;SDS011;5971;49.646;8.568;2023-07-24T16:29:58;4.25;;;1.65;;
11827;SDS011;5971;49.646;8.568;2023-07-24T16:33:00;3.22;;;1.33;;
11827;SDS011;5971;49.646;8.568;2023-07-24T16:36:01;3.83;;;1.80;;
11827;SDS011;5971;49.646;8.568;2023-07-24T16:39:03;3.08;;;1.63;;
11827;SDS011;5971;49.646;8.568;2023-07-24T16:42:07;4.32;;;1.92;;
11827;SDS011;5971;49.646;8.568;2023-07-24T16:45:09;2.88;;;1.50;;
11827;SDS011;5971;49.646;8.568;2023-07-24T16:48:29;2.50;;;1.42;;
11827;SDS011;5971;49.646;8.568;2023-07-24T16:51:30;3.35;;;1.40;;
11827;SDS011;5971;49.646;8.568;2023-07-24T16:54:32;2.30;;;1.30;;
11827;SDS011;5971;49.646;8.568;2023-07-24T16:57:34;2.40;;;1.60;;
11827;SDS011;5971;49.646;8.568;2023-07-24T17:00:37;3.25;;;1.38;;
11827;SDS011;5971;49.646;8.568;2023-07-24T17:03:38;2.72;;;1.33;;
11827;SDS011;5971;49.646;8.568;2023-07-24T17:06:40;2.92;;;1.45;;
11827;SDS011;5971;49.646;8.568;2023-07-24T17:09:43;2.28;;;1.10;;
11827;SDS011;5971;49.646;8.568;2023-07-24T17:12:44;2.20;;;1.25;;
11827;SDS011;5971;49.646;8.568;2023-07-24T17:15:46;2.35;;;1.23;;
11827;SDS011;5971;49.646;8.568;2023-07-24T17:18:48;2.45;;;1.20;;
11827;SDS011;5971;49.646;8.568;2023-07-24T17:21:55;3.22;;;1.13;;
11827;SDS011;5971;49.646;8.568;2023-07-24T17:24:56;2.55;;;1.10;;
11827;SDS011;5971;49.646;8.568;2023-07-24T17:27:58;2.50;;;1.13;;
11827;SDS011;5971;49.646;8.568;2023-07-24T17:30:59;2.60;;;1.23;;
11827;SDS011;5971;49.646;8.568;2023-07-24T17:34:00;3.28;;;1.30;;
11827;SDS011;5971;49.646;8.568;2023-07-24T17:37:03;2.72;;;1.20;;
11827;SDS011;5971;49.646;8.568;2023-07-24T17:40:05;2.83;;;1.38;;
11827;SDS011;5971;49.646;8.568;2023-07-24T17:43:06;2.13;;;1.20;;
11827;SDS011;5971;49.646;8.568;2023-07-24T17:46:08;2.80;;;1.48;;
11827;SDS011;5971;49.646;8.568;2023-07-24T17:49:10;2.20;;;1.23;;
11827;SDS011;5971;49.646;8.568;2023-07-24T17:52:11;2.55;;;1.30;;
11827;SDS011;5971;49.646;8.568;2023-07-24T17:55:13;2.42;;;1.17;;
11827;SDS011;5971;49.646;8.568;2023-07-24T17:58:14;2.70;;;1.50;;
11827;SDS011;5971;49.646;8.568;2023-07-24T18:01:15;3.33;;;1.35;;
11827;SDS011;5971;49.646;8.568;2023-07-24T18:04:17;2.03;;;1.30;;
11827;SDS011;5971;49.646;8.568;2023-07-24T18:07:18;3.03;;;1.60;;
11827;SDS011;5971;49.646;8.568;2023-07-24T18:10:19;3.80;;;1.40;;
11827;SDS011;5971;49.646;8.568;2023-07-24T18:13:21;3.58;;;1.23;;
11827;SDS011;5971;49.646;8.568;2023-07-24T18:16:24;2.75;;;1.50;;
11827;SDS011;5971;49.646;8.568;2023-07-24T18:19:25;4.25;;;1.50;;
11827;SDS011;5971;49.646;8.568;2023-07-24T18:22:27;3.17;;;1.60;;
11827;SDS011;5971;49.646;8.568;2023-07-24T18:25:29;2.40;;;1.35;;
11827;SDS011;5971;49.646;8.568;2023-07-24T18:28:31;3.58;;;1.50;;
11827;SDS011;5971;49.646;8.568;2023-07-24T18:31:32;2.30;;;1.58;;
11827;SDS011;5971;49.646;8.568;2023-07-24T18:34:34;2.50;;;1.30;;
11827;SDS011;5971;49.646;8.568;2023-07-24T18:37:36;2.97;;;1.50;;
11827;SDS011;5971;49.646;8.568;2023-07-24T18:40:37;2.85;;;1.52;;
11827;SDS011;5971;49.646;8.568;2023-07-24T18:43:39;3.65;;;1.35;;
11827;SDS011;5971;49.646;8.568;2023-07-24T18:46:40;3.10;;;1.45;;
11827;SDS011;5971;49.646;8.568;2023-07-24T18:49:42;2.83;;;1.60;;